sensor_id;sensor_type;location;lat;lon;timestamp;P1;durP1;ratioP1;P2;durP2;ratioP2
43363;SDS011;40636;52.424;-1.948;2024-01-07T00:00:49;4.93;;;3.33;;
43363;SDS011;40636;52.424;-1.948;2024-01-07T00:03:16;20.48;;;14.18;;
43363;SDS011;40636;52.424;-1.948;2024-01-07T00:05:43;21.25;;;14.15;;
43363;SDS011;40636;52.424;-1.948;2024-01-07T00:08:10;3.80;;;3.40;;
43363;SDS011;40636;52.424;-1.948;2024-01-07T00:10:37;5.90;;;3.08;;
43363;SDS011;40636;52.424;-1.948;2024-01-07T00:13:04;1.25;;;1.25;;
43363;SDS011;40636;52.424;-1.948;2024-01-07T00:15:31;2.40;;;1.70;;
43363;SDS011;40636;52.424;-1.948;2024-01-07T00:17:58;5.25;;;2.70;;
43363;SDS011;40636;52.424;-1.948;2024-01-07T00:20:25;2.05;;;1.95;;
43363;SDS011;40636;52.424;-1.948;2024-01-07T00:22:52;1.92;;;1.67;;
43363;SDS011;40636;52.424;-1.948;2024-01-07T00:25:18;3.30;;;2.45;;
43363;SDS011;40636;52.424;-1.948;2024-01-07T00:27:45;3.30;;;2.92;;
43363;SDS011;40636;52.424;-1.948;2024-01-07T00:30:12;3.92;;;2.30;;
43363;SDS011;40636;52.424;-1.948;2024-01-07T00:32:39;3.10;;;2.85;;
43363;SDS011;40636;52.424;-1.948;2024-01-07T00:35:06;1.95;;;1.83;;
43363;SDS011;40636;52.424;-1.948;2024-01-07T00:37:33;5.75;;;4.20;;
43363;SDS011;40636;52.424;-1.948;2024-01-07T00:40:01;2.63;;;2.42;;
43363;SDS011;40636;52.424;-1.948;2024-01-07T00:42:28;3.33;;;2.97;;
43363;SDS011;40636;52.424;-1.948;2024-01-07T00:44:55;2.05;;;1.95;;
43363;SDS011;40636;52.424;-1.948;2024-01-07T00:47:22;2.78;;;2.55;;
43363;SDS011;40636;52.424;-1.948;2024-01-07T00:49:48;4.85;;;2.80;;
43363;SDS011;40636;52.424;-1.948;2024-01-07T00:52:15;1.38;;;1.38;;
43363;SDS011;40636;52.424;-1.948;2024-01-07T00:54:42;3.63;;;2.90;;
43363;SDS011;40636;52.424;-1.948;2024-01-07T00:57:10;6.75;;;2.50;;
43363;SDS011;40636;52.424;-1.948;2024-01-07T00:59:38;2.58;;;2.47;;
43363;SDS011;40636;52.424;-1.948;2024-01-07T01:02:05;0.80;;;0.80;;
43363;SDS011;40636;52.424;-1.948;2024-01-07T01:04:32;2.05;;;1.95;;
43363;SDS011;40636;52.424;-1.948;2024-01-07T01:07:00;2.33;;;2.08;;
43363;SDS011;40636;52.424;-1.948;2024-01-07T01:09:27;6.05;;;3.20;;
43363;SDS011;40636;52.424;-1.948;2024-01-07T01:11:55;1.55;;;1.48;;
43363;SDS011;40636;52.424;-1.948;2024-01-07T01:14:22;8.63;;;3.05;;
43363;SDS011;40636;52.424;-1.948;2024-01-07T01:16:49;1.80;;;1.70;;
43363;SDS011;40636;52.424;-1.948;2024-01-07T01:19:17;5.18;;;2.42;;
43363;SDS011;40636;52.424;-1.948;2024-01-07T01:21:44;2.40;;;2.20;;
43363;SDS011;40636;52.424;-1.948;2024-01-07T01:24:11;2.15;;;1.55;;
43363;SDS011;40636;52.424;-1.948;2024-01-07T01:26:39;1.85;;;1.75;;
43363;SDS011;40636;52.424;-1.948;2024-01-07T01:29:06;4.78;;;2.45;;
43363;SDS011;40636;52.424;-1.948;2024-01-07T01:31:33;4.47;;;2.40;;
43363;SDS011;40636;52.424;-1.948;2024-01-07T01:34:00;1.67;;;1.58;;
43363;SDS011;40636;52.424;-1.948;2024-01-07T01:36:27;5.68;;;1.65;;
43363;SDS011;40636;52.424;-1.948;2024-01-07T01:38:54;0.90;;;0.90;;
43363;SDS011;40636;52.424;-1.948;2024-01-07T01:41:20;3.10;;;2.80;;
43363;SDS011;40636;52.424;-1.948;2024-01-07T01:43:47;1.10;;;1.08;;
43363;SDS011;40636;52.424;-1.948;2024-01-07T01:46:14;3.90;;;3.60;;
43363;SDS011;40636;52.424;-1.948;2024-01-07T01:48:41;3.40;;;2.40;;
43363;SDS011;40636;52.424;-1.948;2024-01-07T01:51:09;1.83;;;1.73;;
43363;SDS011;40636;52.424;-1.948;2024-01-07T01:53:36;3.75;;;2.28;;
43363;SDS011;40636;52.424;-1.948;2024-01-07T01:56:04;2.17;;;1.92;;
43363;SDS011;40636;52.424;-1.948;2024-01-07T01:58:31;2.65;;;2.42;;
43363;SDS011;40636;52.424;-1.948;2024-01-07T02:00:59;2.45;;;2.25;;
43363;SDS011;40636;52.424;-1.948;2024-01-07T02:03:26;2.10;;;2.00;;
43363;SDS011;40636;52.424;-1.948;2024-01-07T02:05:53;1.17;;;1.17;;
43363;SDS011;40636;52.424;-1.948;2024-01-07T02:08:20;2.28;;;2.17;;
43363;SDS011;40636;52.424;-1.948;2024-01-07T02:10:47;5.25;;;2.03;;
43363;SDS011;40636;52.424;-1.948;2024-01-07T02:13:14;4.13;;;2.50;;
43363;SDS011;40636;52.424;-1.948;2024-01-07T02:15:41;5.28;;;1.98;;
43363;SDS011;40636;52.424;-1.948;2024-01-07T02:18:08;3.47;;;2.95;;
43363;SDS011;40636;52.424;-1.948;2024-01-07T02:20:34;16.02;;;3.60;;
43363;SDS011;40636;52.424;-1.948;2024-01-07T02:23:02;2.33;;;2.15;;
43363;SDS011;40636;52.424;-1.948;2024-01-07T02:25:36;2.08;;;1.95;;
43363;SDS011;40636;52.424;-1.948;2024-01-07T02:28:04;3.38;;;1.88;;
43363;SDS011;40636;52.424;-1.948;2024-01-07T02:30:31;4.80;;;2.92;;
43363;SDS011;40636;52.424;-1.948;2024-01-07T02:33:00;3.85;;;3.03;;
43363;SDS011;40636;52.424;-1.948;2024-01-07T02:35:29;6.95;;;2.67;;
43363;SDS011;40636;52.424;-1.948;2024-01-07T02:37:55;2.30;;;2.17;;
43363;SDS011;40636;52.424;-1.948;2024-01-07T02:40:22;2.50;;;2.30;;
43363;SDS011;40636;52.424;-1.948;2024-01-07T02:42:49;2.35;;;2.15;;
43363;SDS011;40636;52.424;-1.948;2024-01-07T02:45:16;1.27;;;1.08;;
43363;SDS011;40636;52.424;-1.948;2024-01-07T02:47:43;3.83;;;2.45;;
43363;SDS011;40636;52.424;-1.948;2024-01-07T02:50:09;6.20;;;2.60;;
43363;SDS011;40636;52.424;-1.948;2024-01-07T02:52:36;10.43;;;4.40;;
43363;SDS011;40636;52.424;-1.948;2024-01-07T02:55:03;2.03;;;1.92;;
43363;SDS011;40636;52.424;-1.948;2024-01-07T02:57:30;2.42;;;2.22;;
43363;SDS011;40636;52.424;-1.948;2024-01-07T02:59:57;5.25;;;3.05;;
43363;SDS011;40636;52.424;-1.948;2024-01-07T03:02:23;4.75;;;2.60;;
43363;SDS011;40636;52.424;-1.948;2024-01-07T03:04:50;3.38;;;1.45;;
43363;SDS011;40636;52.424;-1.948;2024-01-07T03:07:17;3.45;;;1.83;;
43363;SDS011;40636;52.424;-1.948;2024-01-07T03:09:44;3.40;;;1.95;;
43363;SDS011;40636;52.424;-1.948;2024-01-07T03:12:14;5.28;;;2.40;;
43363;SDS011;40636;52.424;-1.948;2024-01-07T03:14:42;3.25;;;1.98;;
43363;SDS011;40636;52.424;-1.948;2024-01-07T03:17:11;2.58;;;2.15;;
43363;SDS011;40636;52.424;-1.948;2024-01-07T03:19:38;6.13;;;1.80;;
43363;SDS011;40636;52.424;-1.948;2024-01-07T03:22:06;4.53;;;2.72;;
43363;SDS011;40636;52.424;-1.948;2024-01-07T03:24:34;3.85;;;2.90;;
43363;SDS011;40636;52.424;-1.948;2024-01-07T03:27:01;3.33;;;2.03;;
43363;SDS011;40636;52.424;-1.948;2024-01-07T03:29:27;1.95;;;1.42;;
43363;SDS011;40636;52.424;-1.948;2024-01-07T03:31:54;2.53;;;2.22;;
43363;SDS011;40636;52.424;-1.948;2024-01-07T03:34:21;2.47;;;2.03;;
43363;SDS011;40636;52.424;-1.948;2024-01-07T03:36:48;3.35;;;3.08;;
43363;SDS011;40636;52.424;-1.948;2024-01-07T03:39:14;2.83;;;2.55;;
43363;SDS011;40636;52.424;-1.948;2024-01-07T03:41:41;4.75;;;1.80;;
43363;SDS011;40636;52.424;-1.948;2024-01-07T03:44:08;3.05;;;2.85;;
43363;SDS011;40636;52.424;-1.948;2024-01-07T03:46:35;1.48;;;1.38;;
43363;SDS011;40636;52.424;-1.948;2024-01-07T03:49:01;2.05;;;1.95;;
43363;SDS011;40636;52.424;-1.948;2024-01-07T03:51:28;1.63;;;1.52;;
43363;SDS011;40636;52.424;-1.948;2024-01-07T03:53:55;3.25;;;2.15;;
43363;SDS011;40636;52.424;-1.948;2024-01-07T03:56:22;3.50;;;2.67;;
43363;SDS011;40636;52.424;-1.948;2024-01-07T03:58:48;13.88;;;3.15;;
43363;SDS011;40636;52.424;-1.948;2024-01-07T04:01:16;2.78;;;2.20;;
43363;SDS011;40636;52.424;-1.948;2024-01-07T04:03:43;2.47;;;2.25;;
43363;SDS011;40636;52.424;-1.948;2024-01-07T04:06:10;9.02;;;3.30;;
43363;SDS011;40636;52.424;-1.948;2024-01-07T04:08:37;3.03;;;2.80;;
43363;SDS011;40636;52.424;-1.948;2024-01-07T04:11:04;14.68;;;2.75;;
43363;SDS011;40636;52.424;-1.948;2024-01-07T04:13:31;6.28;;;3.10;;
43363;SDS011;40636;52.424;-1.948;2024-01-07T04:15:57;2.25;;;2.05;;
43363;SDS011;40636;52.424;-1.948;2024-01-07T04:18:24;13.77;;;2.75;;
43363;SDS011;40636;52.424;-1.948;2024-01-07T04:20:51;3.53;;;3.15;;
43363;SDS011;40636;52.424;-1.948;2024-01-07T04:23:18;4.70;;;3.30;;
43363;SDS011;40636;52.424;-1.948;2024-01-07T04:25:44;3.05;;;1.55;;
43363;SDS011;40636;52.424;-1.948;2024-01-07T04:28:11;1.35;;;1.27;;
43363;SDS011;40636;52.424;-1.948;2024-01-07T04:30:38;1.27;;;1.20;;
43363;SDS011;40636;52.424;-1.948;2024-01-07T04:33:05;0.88;;;0.85;;
43363;SDS011;40636;52.424;-1.948;2024-01-07T04:35:32;3.50;;;1.83;;
43363;SDS011;40636;52.424;-1.948;2024-01-07T04:37:59;2.72;;;2.53;;
43363;SDS011;40636;52.424;-1.948;2024-01-07T04:40:26;12.00;;;2.45;;
43363;SDS011;40636;52.424;-1.948;2024-01-07T04:42:52;1.38;;;1.27;;
43363;SDS011;40636;52.424;-1.948;2024-01-07T04:45:19;1.92;;;1.45;;
43363;SDS011;40636;52.424;-1.948;2024-01-07T04:47:46;4.53;;;2.90;;
43363;SDS011;40636;52.424;-1.948;2024-01-07T04:50:13;0.98;;;0.98;;
43363;SDS011;40636;52.424;-1.948;2024-01-07T04:52:41;2.17;;;0.95;;
43363;SDS011;40636;52.424;-1.948;2024-01-07T04:55:08;0.82;;;0.82;;
43363;SDS011;40636;52.424;-1.948;2024-01-07T04:57:36;19.13;;;1.83;;
43363;SDS011;40636;52.424;-1.948;2024-01-07T05:00:03;1.90;;;1.80;;
43363;SDS011;40636;52.424;-1.948;2024-01-07T05:02:30;2.58;;;2.38;;
43363;SDS011;40636;52.424;-1.948;2024-01-07T05:04:57;3.13;;;2.85;;
43363;SDS011;40636;52.424;-1.948;2024-01-07T05:07:23;3.90;;;1.85;;
43363;SDS011;40636;52.424;-1.948;2024-01-07T05:09:50;1.30;;;0.90;;
43363;SDS011;40636;52.424;-1.948;2024-01-07T05:12:17;1.50;;;1.40;;
43363;SDS011;40636;52.424;-1.948;2024-01-07T05:14:44;1.08;;;1.02;;
43363;SDS011;40636;52.424;-1.948;2024-01-07T05:17:12;2.75;;;1.85;;
43363;SDS011;40636;52.424;-1.948;2024-01-07T05:19:42;1.63;;;1.52;;
43363;SDS011;40636;52.424;-1.948;2024-01-07T05:22:09;1.50;;;1.48;;
43363;SDS011;40636;52.424;-1.948;2024-01-07T05:24:36;2.78;;;2.33;;
43363;SDS011;40636;52.424;-1.948;2024-01-07T05:27:07;3.92;;;2.08;;
43363;SDS011;40636;52.424;-1.948;2024-01-07T05:29:35;2.30;;;1.50;;
43363;SDS011;40636;52.424;-1.948;2024-01-07T05:32:01;6.53;;;3.30;;
43363;SDS011;40636;52.424;-1.948;2024-01-07T05:34:29;4.45;;;1.48;;
43363;SDS011;40636;52.424;-1.948;2024-01-07T05:36:56;1.20;;;1.05;;
43363;SDS011;40636;52.424;-1.948;2024-01-07T05:39:23;1.00;;;1.00;;
43363;SDS011;40636;52.424;-1.948;2024-01-07T05:41:49;1.20;;;0.98;;
43363;SDS011;40636;52.424;-1.948;2024-01-07T05:44:16;1.85;;;1.48;;
43363;SDS011;40636;52.424;-1.948;2024-01-07T05:46:43;1.08;;;0.90;;
43363;SDS011;40636;52.424;-1.948;2024-01-07T05:49:10;1.23;;;1.23;;
43363;SDS011;40636;52.424;-1.948;2024-01-07T05:51:40;2.13;;;1.77;;
43363;SDS011;40636;52.424;-1.948;2024-01-07T05:54:07;2.17;;;1.48;;
43363;SDS011;40636;52.424;-1.948;2024-01-07T05:56:38;0.68;;;0.68;;
43363;SDS011;40636;52.424;-1.948;2024-01-07T05:59:08;12.70;;;0.82;;
43363;SDS011;40636;52.424;-1.948;2024-01-07T06:01:35;8.75;;;1.27;;
43363;SDS011;40636;52.424;-1.948;2024-01-07T06:04:02;0.77;;;0.77;;
43363;SDS011;40636;52.424;-1.948;2024-01-07T06:06:29;0.77;;;0.77;;
43363;SDS011;40636;52.424;-1.948;2024-01-07T06:08:56;0.77;;;0.77;;
43363;SDS011;40636;52.424;-1.948;2024-01-07T06:11:23;1.98;;;1.58;;
43363;SDS011;40636;52.424;-1.948;2024-01-07T06:13:50;0.75;;;0.75;;
43363;SDS011;40636;52.424;-1.948;2024-01-07T06:16:16;0.80;;;0.80;;
43363;SDS011;40636;52.424;-1.948;2024-01-07T06:18:43;3.75;;;0.98;;
43363;SDS011;40636;52.424;-1.948;2024-01-07T06:21:10;5.38;;;2.78;;
43363;SDS011;40636;52.424;-1.948;2024-01-07T06:23:37;0.50;;;0.50;;
43363;SDS011;40636;52.424;-1.948;2024-01-07T06:26:04;0.70;;;0.70;;
43363;SDS011;40636;52.424;-1.948;2024-01-07T06:28:31;0.88;;;0.88;;
43363;SDS011;40636;52.424;-1.948;2024-01-07T06:30:59;2.00;;;1.85;;
43363;SDS011;40636;52.424;-1.948;2024-01-07T06:33:29;1.00;;;0.98;;
43363;SDS011;40636;52.424;-1.948;2024-01-07T06:35:56;0.80;;;0.63;;
43363;SDS011;40636;52.424;-1.948;2024-01-07T06:38:23;0.80;;;0.80;;
43363;SDS011;40636;52.424;-1.948;2024-01-07T06:40:50;1.00;;;1.00;;
43363;SDS011;40636;52.424;-1.948;2024-01-07T06:43:17;0.82;;;0.82;;
43363;SDS011;40636;52.424;-1.948;2024-01-07T06:45:45;4.07;;;1.02;;
43363;SDS011;40636;52.424;-1.948;2024-01-07T06:48:11;1.40;;;1.30;;
43363;SDS011;40636;52.424;-1.948;2024-01-07T06:50:39;6.18;;;1.17;;
43363;SDS011;40636;52.424;-1.948;2024-01-07T06:53:05;2.05;;;1.95;;
43363;SDS011;40636;52.424;-1.948;2024-01-07T06:55:32;1.20;;;1.10;;
43363;SDS011;40636;52.424;-1.948;2024-01-07T06:57:59;1.25;;;1.15;;
43363;SDS011;40636;52.424;-1.948;2024-01-07T07:00:26;0.93;;;0.93;;
43363;SDS011;40636;52.424;-1.948;2024-01-07T07:02:53;10.35;;;1.00;;
43363;SDS011;40636;52.424;-1.948;2024-01-07T07:05:20;4.15;;;2.95;;
43363;SDS011;40636;52.424;-1.948;2024-01-07T07:07:47;0.60;;;0.60;;
43363;SDS011;40636;52.424;-1.948;2024-01-07T07:10:16;0.93;;;0.93;;
43363;SDS011;40636;52.424;-1.948;2024-01-07T07:12:43;1.45;;;1.35;;
43363;SDS011;40636;52.424;-1.948;2024-01-07T07:15:09;0.65;;;0.65;;
43363;SDS011;40636;52.424;-1.948;2024-01-07T07:17:39;1.08;;;1.08;;
43363;SDS011;40636;52.424;-1.948;2024-01-07T07:20:06;1.02;;;1.02;;
43363;SDS011;40636;52.424;-1.948;2024-01-07T07:22:34;3.63;;;1.45;;
43363;SDS011;40636;52.424;-1.948;2024-01-07T07:25:00;0.93;;;0.93;;
43363;SDS011;40636;52.424;-1.948;2024-01-07T07:27:28;0.82;;;0.63;;
43363;SDS011;40636;52.424;-1.948;2024-01-07T07:29:55;0.50;;;0.50;;
43363;SDS011;40636;52.424;-1.948;2024-01-07T07:32:23;1.75;;;1.17;;
43363;SDS011;40636;52.424;-1.948;2024-01-07T07:34:50;1.85;;;1.55;;
43363;SDS011;40636;52.424;-1.948;2024-01-07T07:37:16;0.93;;;0.88;;
43363;SDS011;40636;52.424;-1.948;2024-01-07T07:39:46;1.05;;;1.05;;
43363;SDS011;40636;52.424;-1.948;2024-01-07T07:42:13;3.13;;;1.58;;
43363;SDS011;40636;52.424;-1.948;2024-01-07T07:44:40;1.40;;;0.82;;
43363;SDS011;40636;52.424;-1.948;2024-01-07T07:47:07;3.20;;;1.95;;
43363;SDS011;40636;52.424;-1.948;2024-01-07T07:49:34;1.65;;;1.58;;
43363;SDS011;40636;52.424;-1.948;2024-01-07T07:52:03;3.17;;;2.30;;
43363;SDS011;40636;52.424;-1.948;2024-01-07T07:54:30;1.05;;;1.05;;
43363;SDS011;40636;52.424;-1.948;2024-01-07T07:57:01;0.77;;;0.77;;
43363;SDS011;40636;52.424;-1.948;2024-01-07T07:59:28;0.90;;;0.75;;
43363;SDS011;40636;52.424;-1.948;2024-01-07T08:01:55;0.55;;;0.45;;
43363;SDS011;40636;52.424;-1.948;2024-01-07T08:04:22;0.50;;;0.50;;
43363;SDS011;40636;52.424;-1.948;2024-01-07T08:06:49;0.93;;;0.93;;
43363;SDS011;40636;52.424;-1.948;2024-01-07T08:09:16;1.05;;;1.05;;
43363;SDS011;40636;52.424;-1.948;2024-01-07T08:11:42;0.47;;;0.47;;
43363;SDS011;40636;52.424;-1.948;2024-01-07T08:14:09;0.60;;;0.60;;
43363;SDS011;40636;52.424;-1.948;2024-01-07T08:16:36;1.38;;;1.30;;
43363;SDS011;40636;52.424;-1.948;2024-01-07T08:19:03;0.57;;;0.57;;
43363;SDS011;40636;52.424;-1.948;2024-01-07T08:21:29;3.45;;;1.70;;
43363;SDS011;40636;52.424;-1.948;2024-01-07T08:23:56;1.55;;;0.70;;
43363;SDS011;40636;52.424;-1.948;2024-01-07T08:26:23;0.88;;;0.85;;
43363;SDS011;40636;52.424;-1.948;2024-01-07T08:28:49;5.47;;;1.85;;
43363;SDS011;40636;52.424;-1.948;2024-01-07T08:31:16;0.50;;;0.50;;
43363;SDS011;40636;52.424;-1.948;2024-01-07T08:33:43;0.88;;;0.88;;
43363;SDS011;40636;52.424;-1.948;2024-01-07T08:36:10;0.73;;;0.73;;
43363;SDS011;40636;52.424;-1.948;2024-01-07T08:38:37;0.63;;;0.63;;
43363;SDS011;40636;52.424;-1.948;2024-01-07T08:41:04;1.35;;;1.15;;
43363;SDS011;40636;52.424;-1.948;2024-01-07T08:43:31;0.70;;;0.70;;
43363;SDS011;40636;52.424;-1.948;2024-01-07T08:45:58;0.65;;;0.65;;
43363;SDS011;40636;52.424;-1.948;2024-01-07T08:48:24;0.43;;;0.43;;
43363;SDS011;40636;52.424;-1.948;2024-01-07T08:50:51;0.75;;;0.75;;
43363;SDS011;40636;52.424;-1.948;2024-01-07T08:53:18;1.10;;;0.80;;
43363;SDS011;40636;52.424;-1.948;2024-01-07T08:55:46;3.15;;;1.05;;
43363;SDS011;40636;52.424;-1.948;2024-01-07T08:58:15;2.10;;;1.67;;
43363;SDS011;40636;52.424;-1.948;2024-01-07T09:00:43;0.50;;;0.50;;
43363;SDS011;40636;52.424;-1.948;2024-01-07T09:03:10;0.82;;;0.82;;
43363;SDS011;40636;52.424;-1.948;2024-01-07T09:05:37;0.63;;;0.63;;
43363;SDS011;40636;52.424;-1.948;2024-01-07T09:08:04;0.52;;;0.52;;
43363;SDS011;40636;52.424;-1.948;2024-01-07T09:10:33;1.20;;;1.20;;
43363;SDS011;40636;52.424;-1.948;2024-01-07T09:13:00;0.80;;;0.80;;
43363;SDS011;40636;52.424;-1.948;2024-01-07T09:15:26;2.08;;;1.30;;
43363;SDS011;40636;52.424;-1.948;2024-01-07T09:17:53;1.02;;;1.02;;
43363;SDS011;40636;52.424;-1.948;2024-01-07T09:20:20;1.60;;;1.58;;
43363;SDS011;40636;52.424;-1.948;2024-01-07T09:22:47;11.07;;;1.50;;
43363;SDS011;40636;52.424;-1.948;2024-01-07T09:25:14;1.15;;;1.05;;
43363;SDS011;40636;52.424;-1.948;2024-01-07T09:27:42;1.90;;;1.38;;
43363;SDS011;40636;52.424;-1.948;2024-01-07T09:30:10;0.70;;;0.70;;
43363;SDS011;40636;52.424;-1.948;2024-01-07T09:32:38;1.88;;;0.75;;
43363;SDS011;40636;52.424;-1.948;2024-01-07T09:35:05;0.40;;;0.40;;
43363;SDS011;40636;52.424;-1.948;2024-01-07T09:37:32;0.60;;;0.60;;
43363;SDS011;40636;52.424;-1.948;2024-01-07T09:39:59;1.40;;;0.60;;
43363;SDS011;40636;52.424;-1.948;2024-01-07T09:42:26;1.27;;;0.82;;
43363;SDS011;40636;52.424;-1.948;2024-01-07T09:44:53;0.50;;;0.50;;
43363;SDS011;40636;52.424;-1.948;2024-01-07T09:47:20;0.40;;;0.40;;
43363;SDS011;40636;52.424;-1.948;2024-01-07T09:49:47;0.88;;;0.88;;
43363;SDS011;40636;52.424;-1.948;2024-01-07T09:52:13;13.55;;;2.33;;
43363;SDS011;40636;52.424;-1.948;2024-01-07T09:54:41;0.50;;;0.50;;
43363;SDS011;40636;52.424;-1.948;2024-01-07T09:57:08;0.57;;;0.57;;
43363;SDS011;40636;52.424;-1.948;2024-01-07T09:59:35;3.50;;;1.35;;
43363;SDS011;40636;52.424;-1.948;2024-01-07T10:02:03;0.43;;;0.43;;
43363;SDS011;40636;52.424;-1.948;2024-01-07T10:04:30;1.45;;;1.00;;
43363;SDS011;40636;52.424;-1.948;2024-01-07T10:06:58;0.75;;;0.75;;
43363;SDS011;40636;52.424;-1.948;2024-01-07T10:09:28;0.70;;;0.70;;
43363;SDS011;40636;52.424;-1.948;2024-01-07T10:11:56;0.47;;;0.47;;
43363;SDS011;40636;52.424;-1.948;2024-01-07T10:14:23;0.32;;;0.32;;
43363;SDS011;40636;52.424;-1.948;2024-01-07T10:16:52;0.50;;;0.50;;
43363;SDS011;40636;52.424;-1.948;2024-01-07T10:19:20;0.60;;;0.60;;
43363;SDS011;40636;52.424;-1.948;2024-01-07T10:21:58;0.73;;;0.73;;
43363;SDS011;40636;52.424;-1.948;2024-01-07T10:24:31;0.60;;;0.60;;
43363;SDS011;40636;52.424;-1.948;2024-01-07T10:27:04;0.47;;;0.47;;
43363;SDS011;40636;52.424;-1.948;2024-01-07T10:29:32;1.67;;;0.85;;
43363;SDS011;40636;52.424;-1.948;2024-01-07T10:32:00;0.70;;;0.70;;
43363;SDS011;40636;52.424;-1.948;2024-01-07T10:34:33;7.15;;;1.45;;
43363;SDS011;40636;52.424;-1.948;2024-01-07T10:37:03;0.50;;;0.50;;
43363;SDS011;40636;52.424;-1.948;2024-01-07T10:39:33;0.47;;;0.47;;
43363;SDS011;40636;52.424;-1.948;2024-01-07T10:42:00;1.20;;;1.10;;
43363;SDS011;40636;52.424;-1.948;2024-01-07T10:44:30;0.40;;;0.40;;
43363;SDS011;40636;52.424;-1.948;2024-01-07T10:46:58;0.57;;;0.57;;
43363;SDS011;40636;52.424;-1.948;2024-01-07T10:49:26;0.60;;;0.60;;
43363;SDS011;40636;52.424;-1.948;2024-01-07T10:52:02;0.50;;;0.50;;
43363;SDS011;40636;52.424;-1.948;2024-01-07T10:54:30;0.65;;;0.65;;
43363;SDS011;40636;52.424;-1.948;2024-01-07T10:57:01;0.50;;;0.50;;
43363;SDS011;40636;52.424;-1.948;2024-01-07T10:59:31;0.30;;;0.30;;
43363;SDS011;40636;52.424;-1.948;2024-01-07T11:01:58;1.05;;;0.60;;
43363;SDS011;40636;52.424;-1.948;2024-01-07T11:04:37;0.50;;;0.50;;
43363;SDS011;40636;52.424;-1.948;2024-01-07T11:07:17;0.32;;;0.32;;
43363;SDS011;40636;52.424;-1.948;2024-01-07T11:12:44;0.68;;;0.68;;
43363;SDS011;40636;52.424;-1.948;2024-01-07T11:18:19;2.78;;;0.73;;
43363;SDS011;40636;52.424;-1.948;2024-01-07T11:20:46;0.75;;;0.50;;
43363;SDS011;40636;52.424;-1.948;2024-01-07T11:23:26;0.32;;;0.32;;
43363;SDS011;40636;52.424;-1.948;2024-01-07T11:25:59;0.50;;;0.50;;
43363;SDS011;40636;52.424;-1.948;2024-01-07T11:28:42;0.50;;;0.50;;
43363;SDS011;40636;52.424;-1.948;2024-01-07T11:31:09;0.40;;;0.40;;
43363;SDS011;40636;52.424;-1.948;2024-01-07T11:33:36;0.77;;;0.77;;
43363;SDS011;40636;52.424;-1.948;2024-01-07T11:36:07;0.30;;;0.30;;
43363;SDS011;40636;52.424;-1.948;2024-01-07T11:38:34;0.50;;;0.50;;
43363;SDS011;40636;52.424;-1.948;2024-01-07T11:41:03;0.60;;;0.60;;
43363;SDS011;40636;52.424;-1.948;2024-01-07T11:43:32;1.30;;;0.50;;
43363;SDS011;40636;52.424;-1.948;2024-01-07T11:46:00;0.40;;;0.40;;
43363;SDS011;40636;52.424;-1.948;2024-01-07T11:48:27;0.50;;;0.50;;
43363;SDS011;40636;52.424;-1.948;2024-01-07T11:50:54;0.57;;;0.57;;
43363;SDS011;40636;52.424;-1.948;2024-01-07T11:53:22;1.80;;;0.73;;
43363;SDS011;40636;52.424;-1.948;2024-01-07T11:55:48;0.50;;;0.50;;
43363;SDS011;40636;52.424;-1.948;2024-01-07T11:58:15;1.33;;;1.23;;
43363;SDS011;40636;52.424;-1.948;2024-01-07T12:00:42;1.30;;;1.25;;
43363;SDS011;40636;52.424;-1.948;2024-01-07T12:03:09;0.50;;;0.50;;
43363;SDS011;40636;52.424;-1.948;2024-01-07T12:05:38;0.70;;;0.70;;
43363;SDS011;40636;52.424;-1.948;2024-01-07T12:08:10;0.93;;;0.93;;
43363;SDS011;40636;52.424;-1.948;2024-01-07T12:10:37;1.40;;;0.60;;
43363;SDS011;40636;52.424;-1.948;2024-01-07T12:13:04;0.40;;;0.40;;
43363;SDS011;40636;52.424;-1.948;2024-01-07T12:15:31;0.40;;;0.40;;
43363;SDS011;40636;52.424;-1.948;2024-01-07T12:17:59;0.30;;;0.30;;
43363;SDS011;40636;52.424;-1.948;2024-01-07T12:20:28;10.85;;;1.00;;
43363;SDS011;40636;52.424;-1.948;2024-01-07T12:22:55;2.85;;;0.70;;
43363;SDS011;40636;52.424;-1.948;2024-01-07T12:25:32;0.85;;;0.85;;
43363;SDS011;40636;52.424;-1.948;2024-01-07T12:27:59;0.40;;;0.40;;
43363;SDS011;40636;52.424;-1.948;2024-01-07T12:30:27;0.40;;;0.40;;
43363;SDS011;40636;52.424;-1.948;2024-01-07T12:32:54;5.43;;;0.73;;
43363;SDS011;40636;52.424;-1.948;2024-01-07T12:35:24;0.70;;;0.70;;
43363;SDS011;40636;52.424;-1.948;2024-01-07T12:37:52;0.60;;;0.60;;
43363;SDS011;40636;52.424;-1.948;2024-01-07T12:40:19;2.53;;;0.88;;
43363;SDS011;40636;52.424;-1.948;2024-01-07T12:42:47;0.65;;;0.65;;
43363;SDS011;40636;52.424;-1.948;2024-01-07T12:45:14;2.08;;;1.05;;
43363;SDS011;40636;52.424;-1.948;2024-01-07T12:47:42;0.50;;;0.50;;
43363;SDS011;40636;52.424;-1.948;2024-01-07T12:50:10;0.85;;;0.60;;
43363;SDS011;40636;52.424;-1.948;2024-01-07T12:52:37;0.65;;;0.40;;
43363;SDS011;40636;52.424;-1.948;2024-01-07T12:55:07;0.40;;;0.40;;
43363;SDS011;40636;52.424;-1.948;2024-01-07T12:57:34;0.65;;;0.65;;
43363;SDS011;40636;52.424;-1.948;2024-01-07T13:00:03;0.50;;;0.50;;
43363;SDS011;40636;52.424;-1.948;2024-01-07T13:02:33;0.40;;;0.40;;
43363;SDS011;40636;52.424;-1.948;2024-01-07T13:05:00;1.17;;;1.10;;
43363;SDS011;40636;52.424;-1.948;2024-01-07T13:07:28;1.08;;;0.98;;
43363;SDS011;40636;52.424;-1.948;2024-01-07T13:09:55;1.65;;;1.33;;
43363;SDS011;40636;52.424;-1.948;2024-01-07T13:12:22;1.50;;;1.02;;
43363;SDS011;40636;52.424;-1.948;2024-01-07T13:15:01;1.45;;;1.08;;
43363;SDS011;40636;52.424;-1.948;2024-01-07T13:17:29;0.70;;;0.70;;
43363;SDS011;40636;52.424;-1.948;2024-01-07T13:19:56;0.98;;;0.98;;
43363;SDS011;40636;52.424;-1.948;2024-01-07T13:22:24;0.52;;;0.52;;
43363;SDS011;40636;52.424;-1.948;2024-01-07T13:24:51;1.08;;;1.08;;
43363;SDS011;40636;52.424;-1.948;2024-01-07T13:27:18;0.50;;;0.50;;
43363;SDS011;40636;52.424;-1.948;2024-01-07T13:29:45;0.50;;;0.50;;
43363;SDS011;40636;52.424;-1.948;2024-01-07T13:32:14;0.60;;;0.60;;
43363;SDS011;40636;52.424;-1.948;2024-01-07T13:34:44;0.50;;;0.50;;
43363;SDS011;40636;52.424;-1.948;2024-01-07T13:37:12;0.40;;;0.40;;
43363;SDS011;40636;52.424;-1.948;2024-01-07T13:39:38;29.30;;;1.95;;
43363;SDS011;40636;52.424;-1.948;2024-01-07T13:42:06;0.50;;;0.50;;
43363;SDS011;40636;52.424;-1.948;2024-01-07T13:44:33;0.60;;;0.60;;
43363;SDS011;40636;52.424;-1.948;2024-01-07T13:47:01;1.13;;;0.95;;
43363;SDS011;40636;52.424;-1.948;2024-01-07T13:49:28;0.60;;;0.60;;
43363;SDS011;40636;52.424;-1.948;2024-01-07T13:51:57;0.40;;;0.40;;
43363;SDS011;40636;52.424;-1.948;2024-01-07T13:54:31;0.95;;;0.95;;
43363;SDS011;40636;52.424;-1.948;2024-01-07T13:56:58;4.88;;;0.80;;
43363;SDS011;40636;52.424;-1.948;2024-01-07T13:59:26;0.40;;;0.40;;
43363;SDS011;40636;52.424;-1.948;2024-01-07T14:01:53;0.60;;;0.60;;
43363;SDS011;40636;52.424;-1.948;2024-01-07T14:04:20;0.40;;;0.40;;
43363;SDS011;40636;52.424;-1.948;2024-01-07T14:06:56;0.55;;;0.55;;
43363;SDS011;40636;52.424;-1.948;2024-01-07T14:09:24;0.40;;;0.40;;
43363;SDS011;40636;52.424;-1.948;2024-01-07T14:11:51;0.55;;;0.55;;
43363;SDS011;40636;52.424;-1.948;2024-01-07T14:14:18;0.40;;;0.40;;
43363;SDS011;40636;52.424;-1.948;2024-01-07T14:16:48;0.75;;;0.75;;
43363;SDS011;40636;52.424;-1.948;2024-01-07T14:19:15;1.67;;;1.27;;
43363;SDS011;40636;52.424;-1.948;2024-01-07T14:21:43;0.57;;;0.57;;
43363;SDS011;40636;52.424;-1.948;2024-01-07T14:24:09;0.43;;;0.43;;
43363;SDS011;40636;52.424;-1.948;2024-01-07T14:26:36;0.47;;;0.47;;
43363;SDS011;40636;52.424;-1.948;2024-01-07T14:29:04;0.40;;;0.40;;
43363;SDS011;40636;52.424;-1.948;2024-01-07T14:31:43;2.40;;;0.63;;
43363;SDS011;40636;52.424;-1.948;2024-01-07T14:34:11;0.40;;;0.40;;
43363;SDS011;40636;52.424;-1.948;2024-01-07T14:36:39;0.70;;;0.70;;
43363;SDS011;40636;52.424;-1.948;2024-01-07T14:39:08;1.85;;;0.60;;
43363;SDS011;40636;52.424;-1.948;2024-01-07T14:41:36;0.77;;;0.77;;